sensor_id;sensor_type;location;lat;lon;timestamp;pressure;altitude;pressure_sealevel;temperature;humidity
55540;BME280;41384;51.418;7.286;2022-09-09T00:00:20;99184.97;;;17.50;95.29
55540;BME280;41384;51.418;7.286;2022-09-09T00:03:11;99184.44;;;17.38;95.09
55540;BME280;41384;51.418;7.286;2022-09-09T00:08:18;99179.34;;;17.10;98.22
55540;BME280;41384;51.418;7.286;2022-09-09T00:10:45;99177.44;;;16.90;100.00
55540;BME280;41384;51.418;7.286;2022-09-09T00:13:22;99183.06;;;17.04;98.37
55540;BME280;41384;51.418;7.286;2022-09-09T00:18:57;99175.88;;;17.10;98.64
55540;BME280;41384;51.418;7.286;2022-09-09T00:24:44;99164.88;;;16.80;100.00
55540;BME280;41384;51.418;7.286;2022-09-09T00:27:31;99164.91;;;16.96;100.00
55540;BME280;41384;51.418;7.286;2022-09-09T00:32:40;99161.63;;;16.57;100.00
55540;BME280;41384;51.418;7.286;2022-09-09T00:35:17;99153.16;;;16.86;99.74
55540;BME280;41384;51.418;7.286;2022-09-09T00:37:44;99158.53;;;17.17;99.05
55540;BME280;41384;51.418;7.286;2022-09-09T00:40:34;99154.81;;;17.55;95.24
55540;BME280;41384;51.418;7.286;2022-09-09T00:43:10;99152.16;;;17.55;95.43
55540;BME280;41384;51.418;7.286;2022-09-09T00:48:45;99150.25;;;17.76;94.61
55540;BME280;41384;51.418;7.286;2022-09-09T00:51:17;99150.53;;;17.64;95.79
55540;BME280;41384;51.418;7.286;2022-09-09T00:54:21;99153.22;;;17.54;96.55
55540;BME280;41384;51.418;7.286;2022-09-09T00:59:46;99148.16;;;17.42;98.83
55540;BME280;41384;51.418;7.286;2022-09-09T01:02:27;99148.94;;;17.21;100.00
55540;BME280;41384;51.418;7.286;2022-09-09T01:04:54;99153.78;;;17.35;99.83
55540;BME280;41384;51.418;7.286;2022-09-09T01:07:20;99143.63;;;17.27;100.00
55540;BME280;41384;51.418;7.286;2022-09-09T01:09:52;99147.38;;;17.26;100.00
55540;BME280;41384;51.418;7.286;2022-09-09T01:15:08;99156.69;;;17.49;97.96
55540;BME280;41384;51.418;7.286;2022-09-09T01:17:44;99145.22;;;17.43;99.23
55540;BME280;41384;51.418;7.286;2022-09-09T01:22:57;99149.22;;;17.10;100.00
55540;BME280;41384;51.418;7.286;2022-09-09T01:25:28;99139.63;;;17.09;100.00
55540;BME280;41384;51.418;7.286;2022-09-09T01:28:00;99149.19;;;16.94;100.00
55540;BME280;41384;51.418;7.286;2022-09-09T01:30:27;99148.09;;;16.80;100.00
55540;BME280;41384;51.418;7.286;2022-09-09T01:32:55;99140.91;;;16.96;100.00
55540;BME280;41384;51.418;7.286;2022-09-09T01:35:31;99149.97;;;16.95;100.00
55540;BME280;41384;51.418;7.286;2022-09-09T01:37:58;99143.34;;;17.08;100.00
55540;BME280;41384;51.418;7.286;2022-09-09T01:40:24;99150.81;;;17.11;100.00
55540;BME280;41384;51.418;7.286;2022-09-09T01:42:51;99142.28;;;17.09;100.00
55540;BME280;41384;51.418;7.286;2022-09-09T01:45:17;99141.44;;;16.82;100.00
55540;BME280;41384;51.418;7.286;2022-09-09T01:47:43;99142.47;;;16.76;100.00
55540;BME280;41384;51.418;7.286;2022-09-09T01:50:10;99138.81;;;17.08;100.00
55540;BME280;41384;51.418;7.286;2022-09-09T01:52:37;99137.13;;;16.66;100.00
55540;BME280;41384;51.418;7.286;2022-09-09T01:55:03;99133.13;;;16.68;100.00
55540;BME280;41384;51.418;7.286;2022-09-09T01:57:39;99138.44;;;16.58;100.00
55540;BME280;41384;51.418;7.286;2022-09-09T02:00:10;99141.47;;;17.08;100.00
55540;BME280;41384;51.418;7.286;2022-09-09T02:02:58;99145.97;;;16.92;100.00
55540;BME280;41384;51.418;7.286;2022-09-09T02:08:45;99139.25;;;16.53;100.00
55540;BME280;41384;51.418;7.286;2022-09-09T02:11:15;99139.78;;;16.60;100.00
55540;BME280;41384;51.418;7.286;2022-09-09T02:13:43;99141.38;;;16.51;100.00
55540;BME280;41384;51.418;7.286;2022-09-09T02:16:23;99138.16;;;16.49;100.00
55540;BME280;41384;51.418;7.286;2022-09-09T02:21:22;99137.09;;;16.45;100.00
55540;BME280;41384;51.418;7.286;2022-09-09T02:23:49;99138.72;;;16.67;100.00
55540;BME280;41384;51.418;7.286;2022-09-09T02:26:17;99139.47;;;16.46;100.00
55540;BME280;41384;51.418;7.286;2022-09-09T02:28:48;99137.06;;;16.40;100.00
55540;BME280;41384;51.418;7.286;2022-09-09T02:31:17;99146.38;;;16.37;100.00
55540;BME280;41384;51.418;7.286;2022-09-09T02:33:48;99140.78;;;16.39;100.00
55540;BME280;41384;51.418;7.286;2022-09-09T02:36:16;99146.22;;;16.75;100.00
55540;BME280;41384;51.418;7.286;2022-09-09T02:38:46;99144.56;;;16.53;100.00
55540;BME280;41384;51.418;7.286;2022-09-09T02:41:19;99145.63;;;16.52;100.00
55540;BME280;41384;51.418;7.286;2022-09-09T02:43:46;99150.47;;;16.66;100.00
55540;BME280;41384;51.418;7.286;2022-09-09T02:49:22;99147.81;;;16.76;100.00
55540;BME280;41384;51.418;7.286;2022-09-09T02:52:06;99142.78;;;16.95;100.00
55540;BME280;41384;51.418;7.286;2022-09-09T02:54:35;99143.34;;;17.08;100.00
55540;BME280;41384;51.418;7.286;2022-09-09T02:57:16;99145.16;;;16.86;100.00
55540;BME280;41384;51.418;7.286;2022-09-09T02:59:44;99141.09;;;16.58;100.00
55540;BME280;41384;51.418;7.286;2022-09-09T03:02:10;99147.31;;;16.89;100.00
55540;BME280;41384;51.418;7.286;2022-09-09T03:04:37;99137.69;;;16.73;100.00
55540;BME280;41384;51.418;7.286;2022-09-09T03:07:02;99137.63;;;16.52;100.00
55540;BME280;41384;51.418;7.286;2022-09-09T03:09:28;99137.41;;;16.69;100.00
55540;BME280;41384;51.418;7.286;2022-09-09T03:11:53;99132.66;;;16.87;100.00
55540;BME280;41384;51.418;7.286;2022-09-09T03:14:20;99128.88;;;16.67;100.00
55540;BME280;41384;51.418;7.286;2022-09-09T03:16:46;99122.19;;;16.54;100.00
55540;BME280;41384;51.418;7.286;2022-09-09T03:19:12;99120.28;;;16.44;100.00
55540;BME280;41384;51.418;7.286;2022-09-09T03:21:37;99120.06;;;16.61;100.00
55540;BME280;41384;51.418;7.286;2022-09-09T03:24:03;99118.72;;;16.54;100.00
55540;BME280;41384;51.418;7.286;2022-09-09T03:26:29;99109.38;;;16.36;100.00
55540;BME280;41384;51.418;7.286;2022-09-09T03:28:55;99114.19;;;16.44;100.00
55540;BME280;41384;51.418;7.286;2022-09-09T03:31:21;99113.06;;;16.34;100.00
55540;BME280;41384;51.418;7.286;2022-09-09T03:33:46;99115.47;;;16.31;100.00
55540;BME280;41384;51.418;7.286;2022-09-09T03:36:11;99111.94;;;16.20;100.00
55540;BME280;41384;51.418;7.286;2022-09-09T03:38:36;99122.41;;;16.42;100.00
55540;BME280;41384;51.418;7.286;2022-09-09T03:41:02;99109.44;;;16.67;100.00
55540;BME280;41384;51.418;7.286;2022-09-09T03:43:28;99116.59;;;16.56;100.00
55540;BME280;41384;51.418;7.286;2022-09-09T03:45:54;99112.06;;;16.56;100.00
55540;BME280;41384;51.418;7.286;2022-09-09T03:48:23;99121.63;;;16.37;100.00
55540;BME280;41384;51.418;7.286;2022-09-09T03:50:51;99118.69;;;16.43;100.00
55540;BME280;41384;51.418;7.286;2022-09-09T03:53:20;99116.84;;;16.44;100.00
55540;BME280;41384;51.418;7.286;2022-09-09T03:55:48;99118.44;;;16.45;100.00
55540;BME280;41384;51.418;7.286;2022-09-09T03:58:14;99123.22;;;16.43;100.00
55540;BME280;41384;51.418;7.286;2022-09-09T04:00:40;99127.81;;;16.73;100.00
55540;BME280;41384;51.418;7.286;2022-09-09T04:03:09;99130.16;;;16.39;100.00
55540;BME280;41384;51.418;7.286;2022-09-09T04:05:34;99123.66;;;16.19;100.00
55540;BME280;41384;51.418;7.286;2022-09-09T04:08:00;99119.84;;;15.99;100.00
55540;BME280;41384;51.418;7.286;2022-09-09T04:10:25;99123.91;;;16.12;100.00
55540;BME280;41384;51.418;7.286;2022-09-09T04:12:51;99128.25;;;16.39;100.00
55540;BME280;41384;51.418;7.286;2022-09-09T04:15:17;99122.38;;;16.27;100.00
55540;BME280;41384;51.418;7.286;2022-09-09T04:17:43;99121.84;;;16.30;100.00
55540;BME280;41384;51.418;7.286;2022-09-09T04:20:09;99122.03;;;16.13;100.00
55540;BME280;41384;51.418;7.286;2022-09-09T04:22:37;99119.91;;;16.10;100.00
55540;BME280;41384;51.418;7.286;2022-09-09T04:25:05;99122.41;;;16.42;100.00
55540;BME280;41384;51.418;7.286;2022-09-09T04:27:30;99118.59;;;16.12;100.00
55540;BME280;41384;51.418;7.286;2022-09-09T04:29:56;99117.78;;;16.17;100.00
55540;BME280;41384;51.418;7.286;2022-09-09T04:32:22;99130.53;;;16.10;100.00
55540;BME280;41384;51.418;7.286;2022-09-09T04:34:48;99117.75;;;16.07;100.00
55540;BME280;41384;51.418;7.286;2022-09-09T04:37:13;99120.66;;;16.00;100.00
55540;BME280;41384;51.418;7.286;2022-09-09T04:39:39;99126.56;;;16.12;100.00
55540;BME280;41384;51.418;7.286;2022-09-09T04:42:04;99119.91;;;16.15;100.00
55540;BME280;41384;51.418;7.286;2022-09-09T04:44:29;99124.28;;;16.37;100.00
55540;BME280;41384;51.418;7.286;2022-09-09T04:46:55;99122.38;;;16.27;100.00
55540;BME280;41384;51.418;7.286;2022-09-09T04:49:21;99123.66;;;16.19;100.00
55540;BME280;41384;51.418;7.286;2022-09-09T04:51:48;99120.97;;;16.14;100.00
55540;BME280;41384;51.418;7.286;2022-09-09T04:54:14;99120.25;;;16.34;100.00
55540;BME280;41384;51.418;7.286;2022-09-09T04:56:40;99121.78;;;16.14;100.00
55540;BME280;41384;51.418;7.286;2022-09-09T04:59:07;99126.34;;;16.29;100.00
55540;BME280;41384;51.418;7.286;2022-09-09T05:01:33;99129.25;;;16.17;100.00
55540;BME280;41384;51.418;7.286;2022-09-09T05:03:58;99117.03;;;16.27;100.00
55540;BME280;41384;51.418;7.286;2022-09-09T05:06:24;99115.97;;;16.28;100.00
55540;BME280;41384;51.418;7.286;2022-09-09T05:08:50;99118.88;;;16.21;100.00
55540;BME280;41384;51.418;7.286;2022-09-09T05:13:43;99121.50;;;16.11;100.00
55540;BME280;41384;51.418;7.286;2022-09-09T05:16:09;99118.88;;;16.26;100.00
55540;BME280;41384;51.418;7.286;2022-09-09T05:18:36;99120.75;;;16.21;100.00
55540;BME280;41384;51.418;7.286;2022-09-09T05:21:02;99125.00;;;16.22;100.00
55540;BME280;41384;51.418;7.286;2022-09-09T05:23:27;99124.22;;;16.31;100.00
55540;BME280;41384;51.418;7.286;2022-09-09T05:25:57;99120.47;;;16.22;100.00
55540;BME280;41384;51.418;7.286;2022-09-09T05:28:24;99122.59;;;16.20;100.00
55540;BME280;41384;51.418;7.286;2022-09-09T05:31:00;99122.63;;;16.25;100.00
55540;BME280;41384;51.418;7.286;2022-09-09T05:33:27;99120.50;;;16.27;100.00
55540;BME280;41384;51.418;7.286;2022-09-09T05:36:00;99125.78;;;16.17;100.00
55540;BME280;41384;51.418;7.286;2022-09-09T05:38:26;99128.00;;;16.36;100.00
55540;BME280;41384;51.418;7.286;2022-09-09T05:40:52;99129.88;;;16.40;100.00
55540;BME280;41384;51.418;7.286;2022-09-09T05:43:19;99125.63;;;16.49;100.00
55540;BME280;41384;51.418;7.286;2022-09-09T05:45:48;99132.03;;;16.54;100.00
55540;BME280;41384;51.418;7.286;2022-09-09T05:48:17;99130.41;;;16.42;100.00
55540;BME280;41384;51.418;7.286;2022-09-09T05:50:42;99127.47;;;16.39;100.00
55540;BME280;41384;51.418;7.286;2022-09-09T05:53:09;99132.19;;;16.26;100.00
55540;BME280;41384;51.418;7.286;2022-09-09T05:55:35;99129.28;;;16.23;100.00
55540;BME280;41384;51.418;7.286;2022-09-09T05:58:00;99132.50;;;16.35;100.00
55540;BME280;41384;51.418;7.286;2022-09-09T06:00:26;99137.53;;;16.26;100.00
55540;BME280;41384;51.418;7.286;2022-09-09T06:02:52;99134.34;;;16.29;100.00
55540;BME280;41384;51.418;7.286;2022-09-09T06:05:18;99138.69;;;16.46;100.00
55540;BME280;41384;51.418;7.286;2022-09-09T06:07:43;99139.44;;;16.36;100.00
55540;BME280;41384;51.418;7.286;2022-09-09T06:10:10;99132.81;;;16.39;100.00
55540;BME280;41384;51.418;7.286;2022-09-09T06:12:35;99132.22;;;16.31;100.00
55540;BME280;41384;51.418;7.286;2022-09-09T06:15:01;99142.34;;;16.34;100.00
55540;BME280;41384;51.418;7.286;2022-09-09T06:17:26;99141.38;;;16.51;100.00
55540;BME280;41384;51.418;7.286;2022-09-09T06:19:52;99141.34;;;16.41;100.00
55540;BME280;41384;51.418;7.286;2022-09-09T06:22:18;99136.56;;;16.48;100.00
55540;BME280;41384;51.418;7.286;2022-09-09T06:24:43;99139.25;;;16.53;100.00
55540;BME280;41384;51.418;7.286;2022-09-09T06:27:09;99134.72;;;16.59;100.00
55540;BME280;41384;51.418;7.286;2022-09-09T06:29:35;99142.97;;;16.52;100.00
55540;BME280;41384;51.418;7.286;2022-09-09T06:32:02;99146.19;;;16.65;100.00
55540;BME280;41384;51.418;7.286;2022-09-09T06:34:27;99128.88;;;16.67;100.00
55540;BME280;41384;51.418;7.286;2022-09-09T06:36:53;99136.56;;;16.53;100.00
55540;BME280;41384;51.418;7.286;2022-09-09T06:39:18;99132.88;;;16.70;100.00
55540;BME280;41384;51.418;7.286;2022-09-09T06:41:43;99138.22;;;16.75;100.00
55540;BME280;41384;51.418;7.286;2022-09-09T06:44:09;99139.81;;;16.76;100.00
55540;BME280;41384;51.418;7.286;2022-09-09T06:46:36;99141.38;;;16.51;100.00
55540;BME280;41384;51.418;7.286;2022-09-09T06:49:02;99142.19;;;16.67;100.00
55540;BME280;41384;51.418;7.286;2022-09-09T06:51:33;99140.13;;;16.85;100.00
55540;BME280;41384;51.418;7.286;2022-09-09T06:54:00;99141.38;;;16.61;100.00
55540;BME280;41384;51.418;7.286;2022-09-09T06:58:57;99144.38;;;16.86;100.00
55540;BME280;41384;51.418;7.286;2022-09-09T07:01:29;99145.91;;;16.61;100.00
55540;BME280;41384;51.418;7.286;2022-09-09T07:03:56;99152.06;;;16.72;100.00
55540;BME280;41384;51.418;7.286;2022-09-09T07:06:26;99148.88;;;16.70;100.00
55540;BME280;41384;51.418;7.286;2022-09-09T07:09:00;99147.22;;;16.53;100.00
55540;BME280;41384;51.418;7.286;2022-09-09T07:11:30;99156.31;;;16.57;100.00
55540;BME280;41384;51.418;7.286;2022-09-09T07:13:57;99154.94;;;16.49;100.00
55540;BME280;41384;51.418;7.286;2022-09-09T07:16:24;99156.59;;;16.76;100.00
55540;BME280;41384;51.418;7.286;2022-09-09T07:18:50;99165.34;;;16.56;100.00
55540;BME280;41384;51.418;7.286;2022-09-09T07:21:17;99165.72;;;16.96;100.00
55540;BME280;41384;51.418;7.286;2022-09-09T07:23:42;99165.47;;;17.13;98.63
55540;BME280;41384;51.418;7.286;2022-09-09T07:26:13;99163.63;;;16.98;99.20
55540;BME280;41384;51.418;7.286;2022-09-09T07:28:38;99156.69;;;17.02;98.56
55540;BME280;41384;51.418;7.286;2022-09-09T07:31:05;99168.13;;;17.03;97.07
55540;BME280;41384;51.418;7.286;2022-09-09T07:33:32;99172.09;;;16.95;98.33
55540;BME280;41384;51.418;7.286;2022-09-09T07:36:07;99167.06;;;16.99;98.26
55540;BME280;41384;51.418;7.286;2022-09-09T07:38:47;99161.75;;;17.09;97.45
55540;BME280;41384;51.418;7.286;2022-09-09T07:41:15;99164.94;;;17.11;97.25
55540;BME280;41384;51.418;7.286;2022-09-09T07:43:43;99168.66;;;17.05;97.12
55540;BME280;41384;51.418;7.286;2022-09-09T07:46:10;99167.88;;;16.99;97.02
55540;BME280;41384;51.418;7.286;2022-09-09T07:48:37;99172.09;;;16.90;98.30
55540;BME280;41384;51.418;7.286;2022-09-09T07:51:14;99173.16;;;16.89;98.31
55540;BME280;41384;51.418;7.286;2022-09-09T07:53:43;99166.53;;;17.17;96.99
55540;BME280;41384;51.418;7.286;2022-09-09T07:56:10;99167.59;;;17.16;95.37
55540;BME280;41384;51.418;7.286;2022-09-09T07:58:37;99172.44;;;17.25;94.60
55540;BME280;41384;51.418;7.286;2022-09-09T08:01:24;99168.44;;;17.38;94.65
55540;BME280;41384;51.418;7.286;2022-09-09T08:03:58;99172.16;;;17.42;93.93
55540;BME280;41384;51.418;7.286;2022-09-09T08:06:25;99173.22;;;17.41;92.85
55540;BME280;41384;51.418;7.286;2022-09-09T08:08:52;99175.88;;;17.56;91.34
55540;BME280;41384;51.418;7.286;2022-09-09T08:11:18;99176.16;;;17.60;91.37
55540;BME280;41384;51.418;7.286;2022-09-09T08:13:44;99177.78;;;17.50;90.52
55540;BME280;41384;51.418;7.286;2022-09-09T08:16:12;99178.00;;;17.54;89.45
55540;BME280;41384;51.418;7.286;2022-09-09T08:18:37;99187.63;;;17.55;88.92
55540;BME280;41384;51.418;7.286;2022-09-09T08:21:09;99176.94;;;17.55;87.83
55540;BME280;41384;51.418;7.286;2022-09-09T08:23:37;99180.16;;;17.68;88.84
55540;BME280;41384;51.418;7.286;2022-09-09T08:26:04;99177.22;;;17.69;nan
55540;BME280;41384;51.418;7.286;2022-09-09T08:28:29;99169.19;;;17.74;87.56
55540;BME280;41384;51.418;7.286;2022-09-09T08:30:56;99170.75;;;17.91;87.10
55540;BME280;41384;51.418;7.286;2022-09-09T08:33:29;99173.16;;;18.08;86.40
55540;BME280;41384;51.418;7.286;2022-09-09T08:35:54;99173.09;;;18.23;83.84
55540;BME280;41384;51.418;7.286;2022-09-09T08:38:19;99182.97;;;18.33;82.84
55540;BME280;41384;51.418;7.286;2022-09-09T08:40:47;99190.66;;;18.40;82.43
55540;BME280;41384;51.418;7.286;2022-09-09T08:43:16;99173.81;;;18.45;81.74
55540;BME280;41384;51.418;7.286;2022-09-09T08:45:56;99178.31;;;18.55;81.51
55540;BME280;41384;51.418;7.286;2022-09-09T08:48:49;99178.81;;;18.67;78.78
55540;BME280;41384;51.418;7.286;2022-09-09T08:51:18;99171.88;;;18.66;78.78
55540;BME280;41384;51.418;7.286;2022-09-09T08:53:46;99174.28;;;18.62;78.64
55540;BME280;41384;51.418;7.286;2022-09-09T08:56:16;99179.53;;;18.78;77.36
55540;BME280;41384;51.418;7.286;2022-09-09T08:58:47;99174.13;;;18.88;76.70
55540;BME280;41384;51.418;7.286;2022-09-09T09:01:38;99181.31;;;18.93;76.45
55540;BME280;41384;51.418;7.286;2022-09-09T09:11:55;99183.69;;;19.00;71.17
55540;BME280;41384;51.418;7.286;2022-09-09T09:14:28;99189.31;;;19.03;71.71
55540;BME280;41384;51.418;7.286;2022-09-09T09:17:00;99188.00;;;19.01;71.22
55540;BME280;41384;51.418;7.286;2022-09-09T09:19:27;99184.72;;;19.09;71.41
55540;BME280;41384;51.418;7.286;2022-09-09T09:24:53;99193.31;;;18.95;71.57
55540;BME280;41384;51.418;7.286;2022-09-09T09:27:26;99192.31;;;18.86;71.20
55540;BME280;41384;51.418;7.286;2022-09-09T09:29:54;99177.59;;;18.89;71.00
55540;BME280;41384;51.418;7.286;2022-09-09T09:32:24;99192.09;;;18.83;71.31
55540;BME280;41384;51.418;7.286;2022-09-09T09:34:55;99185.06;;;18.92;71.15
55540;BME280;41384;51.418;7.286;2022-09-09T09:37:27;99185.09;;;18.87;70.80
55540;BME280;41384;51.418;7.286;2022-09-09T09:39:54;99192.25;;;19.07;70.47
55540;BME280;41384;51.418;7.286;2022-09-09T09:42:19;99186.09;;;19.01;70.25
55540;BME280;41384;51.418;7.286;2022-09-09T09:44:45;99187.34;;;19.19;71.08
55540;BME280;41384;51.418;7.286;2022-09-09T09:49:37;99200.81;;;19.04;70.03
55540;BME280;41384;51.418;7.286;2022-09-09T09:52:04;99203.34;;;18.74;70.16
55540;BME280;41384;51.418;7.286;2022-09-09T09:54:38;99203.66;;;18.67;71.43
55540;BME280;41384;51.418;7.286;2022-09-09T09:57:11;99200.75;;;18.64;71.69
55540;BME280;41384;51.418;7.286;2022-09-09T09:59:37;99196.94;;;18.75;71.54
55540;BME280;41384;51.418;7.286;2022-09-09T10:02:23;99204.13;;;18.80;71.58
55540;BME280;41384;51.418;7.286;2022-09-09T10:05:04;99201.38;;;19.01;71.99
55540;BME280;41384;51.418;7.286;2022-09-09T10:07:30;99197.75;;;19.21;70.74
55540;BME280;41384;51.418;7.286;2022-09-09T10:09:57;99203.59;;;19.23;71.05
55540;BME280;41384;51.418;7.286;2022-09-09T10:12:30;99198.50;;;19.27;69.53
55540;BME280;41384;51.418;7.286;2022-09-09T10:15:09;99202.34;;;19.15;69.05
55540;BME280;41384;51.418;7.286;2022-09-09T10:20:59;99194.81;;;19.22;68.25
55540;BME280;41384;51.418;7.286;2022-09-09T10:29:01;99198.47;;;19.32;67.12
55540;BME280;41384;51.418;7.286;2022-09-09T10:34:37;99183.31;;;19.51;64.44
55540;BME280;41384;51.418;7.286;2022-09-09T10:37:28;99184.47;;;19.75;63.84
55540;BME280;41384;51.418;7.286;2022-09-09T10:40:15;99177.16;;;19.80;61.85
55540;BME280;41384;51.418;7.286;2022-09-09T10:42:44;99180.28;;;19.88;61.42
55540;BME280;41384;51.418;7.286;2022-09-09T10:45:41;99181.09;;;19.88;61.36
55540;BME280;41384;51.418;7.286;2022-09-09T10:51:12;99183.53;;;19.84;60.07
55540;BME280;41384;51.418;7.286;2022-09-09T10:56:25;99178.13;;;19.95;60.84
55540;BME280;41384;51.418;7.286;2022-09-09T10:59:05;99162.84;;;20.20;60.07
55540;BME280;41384;51.418;7.286;2022-09-09T11:01:37;99169.00;;;19.96;60.36
55540;BME280;41384;51.418;7.286;2022-09-09T11:04:11;99173.28;;;19.97;60.29
55540;BME280;41384;51.418;7.286;2022-09-09T11:06:44;99162.09;;;20.14;60.17
55540;BME280;41384;51.418;7.286;2022-09-09T11:09:19;99165.78;;;20.42;59.65
55540;BME280;41384;51.418;7.286;2022-09-09T11:11:57;99170.06;;;20.44;59.09
55540;BME280;41384;51.418;7.286;2022-09-09T11:14:42;99175.53;;;20.33;58.73
55540;BME280;41384;51.418;7.286;2022-09-09T11:17:15;99170.31;;;20.23;59.10
55540;BME280;41384;51.418;7.286;2022-09-09T11:19:43;99169.34;;;20.57;58.75
55540;BME280;41384;51.418;7.286;2022-09-09T11:22:32;99169.03;;;20.39;58.59
55540;BME280;41384;51.418;7.286;2022-09-09T11:25:15;99172.88;;;20.33;58.48
55540;BME280;41384;51.418;7.286;2022-09-09T11:42:16;99159.41;;;20.38;57.95
55540;BME280;41384;51.418;7.286;2022-09-09T11:44:43;99163.41;;;20.17;58.54
55540;BME280;41384;51.418;7.286;2022-09-09T11:47:29;99158.69;;;20.52;57.28
55540;BME280;41384;51.418;7.286;2022-09-09T11:52:45;99157.72;;;19.99;58.86
55540;BME280;41384;51.418;7.286;2022-09-09T11:57:45;99163.50;;;19.82;59.44
55540;BME280;41384;51.418;7.286;2022-09-09T12:00:41;99159.97;;;19.92;59.87
55540;BME280;41384;51.418;7.286;2022-09-09T12:03:47;99162.16;;;19.79;59.87
55540;BME280;41384;51.418;7.286;2022-09-09T12:06:20;99153.72;;;19.67;59.90
55540;BME280;41384;51.418;7.286;2022-09-09T12:11:51;99168.44;;;19.69;65.59
55540;BME280;41384;51.418;7.286;2022-09-09T12:14:42;99188.25;;;19.39;70.06
55540;BME280;41384;51.418;7.286;2022-09-09T12:19:39;99192.28;;;18.91;76.02
55540;BME280;41384;51.418;7.286;2022-09-09T12:22:33;99204.94;;;18.80;79.86
55540;BME280;41384;51.418;7.286;2022-09-09T12:28:11;99198.22;;;18.83;82.12
55540;BME280;41384;51.418;7.286;2022-09-09T12:33:39;99191.72;;;19.05;86.34
55540;BME280;41384;51.418;7.286;2022-09-09T12:36:13;99181.31;;;18.98;84.74
55540;BME280;41384;51.418;7.286;2022-09-09T12:38:41;99177.25;;;19.06;86.65
55540;BME280;41384;51.418;7.286;2022-09-09T12:41:21;99182.34;;;19.02;86.15
55540;BME280;41384;51.418;7.286;2022-09-09T12:43:46;99177.91;;;19.27;83.05
55540;BME280;41384;51.418;7.286;2022-09-09T12:46:31;99166.75;;;19.15;82.61
55540;BME280;41384;51.418;7.286;2022-09-09T12:48:58;99169.03;;;19.32;82.63
55540;BME280;41384;51.418;7.286;2022-09-09T12:51:27;99183.16;;;19.37;81.00
55540;BME280;41384;51.418;7.286;2022-09-09T12:53:54;99187.16;;;19.40;81.12
55540;BME280;41384;51.418;7.286;2022-09-09T12:56:22;99188.78;;;18.96;83.33
55540;BME280;41384;51.418;7.286;2022-09-09T12:58:51;99189.91;;;18.90;86.81
55540;BME280;41384;51.418;7.286;2022-09-09T13:01:27;99187.59;;;18.67;87.94
55540;BME280;41384;51.418;7.286;2022-09-09T13:03:54;99181.03;;;19.05;87.33
55540;BME280;41384;51.418;7.286;2022-09-09T13:06:25;99176.78;;;18.88;88.72
55540;BME280;41384;51.418;7.286;2022-09-09T13:08:55;99175.06;;;19.13;90.01
55540;BME280;41384;51.418;7.286;2022-09-09T13:11:38;99163.66;;;19.37;86.93
55540;BME280;41384;51.418;7.286;2022-09-09T13:14:05;99156.56;;;19.51;86.98
55540;BME280;41384;51.418;7.286;2022-09-09T13:16:35;99153.50;;;19.88;84.38
55540;BME280;41384;51.418;7.286;2022-09-09T13:19:24;99147.78;;;20.24;82.39
55540;BME280;41384;51.418;7.286;2022-09-09T13:21:53;99144.78;;;20.06;81.42
55540;BME280;41384;51.418;7.286;2022-09-09T13:24:31;99149.84;;;20.08;81.07
55540;BME280;41384;51.418;7.286;2022-09-09T13:26:58;99150.41;;;20.29;80.07
55540;BME280;41384;51.418;7.286;2022-09-09T13:29:23;99144.72;;;20.55;80.04
55540;BME280;41384;51.418;7.286;2022-09-09T13:31:50;99151.94;;;20.35;79.40
55540;BME280;41384;51.418;7.286;2022-09-09T13:34:31;99154.63;;;20.35;79.00
55540;BME280;41384;51.418;7.286;2022-09-09T13:37:22;99153.00;;;19.86;77.50
55540;BME280;41384;51.418;7.286;2022-09-09T13:39:52;99160.16;;;19.95;77.49
55540;BME280;41384;51.418;7.286;2022-09-09T13:42:30;99164.00;;;19.84;78.26
55540;BME280;41384;51.418;7.286;2022-09-09T13:44:57;99167.78;;;19.53;78.17
55540;BME280;41384;51.418;7.286;2022-09-09T13:47:35;99186.38;;;19.05;81.95
55540;BME280;41384;51.418;7.286;2022-09-09T13:50:30;99183.41;;;18.51;83.57
55540;BME280;41384;51.418;7.286;2022-09-09T13:52:57;99193.13;;;18.31;86.72
55540;BME280;41384;51.418;7.286;2022-09-09T13:55:29;99195.31;;;18.19;89.79
55540;BME280;41384;51.418;7.286;2022-09-09T13:57:58;99172.31;;;18.23;89.70
55540;BME280;41384;51.418;7.286;2022-09-09T14:00:26;99168.56;;;18.24;92.53
55540;BME280;41384;51.418;7.286;2022-09-09T14:02:51;99171.47;;;18.28;92.73
55540;BME280;41384;51.418;7.286;2022-09-09T14:05:18;99172.78;;;18.41;91.87
55540;BME280;41384;51.418;7.286;2022-09-09T14:07:44;99166.56;;;18.50;91.27
55540;BME280;41384;51.418;7.286;2022-09-09T14:10:11;99160.53;;;18.34;93.60
55540;BME280;41384;51.418;7.286;2022-09-09T14:12:36;99160.19;;;18.91;93.79
55540;BME280;41384;51.418;7.286;2022-09-09T14:15:04;99159.81;;;19.14;93.16
55540;BME280;41384;51.418;7.286;2022-09-09T14:17:29;99146.66;;;19.22;93.69
55540;BME280;41384;51.418;7.286;2022-09-09T14:19:57;99142.63;;;19.20;93.01
55540;BME280;41384;51.418;7.286;2022-09-09T14:22:22;99139.63;;;19.61;92.73
55540;BME280;41384;51.418;7.286;2022-09-09T14:24:48;99136.38;;;19.35;88.82
55540;BME280;41384;51.418;7.286;2022-09-09T14:27:14;99139.50;;;19.13;89.49
55540;BME280;41384;51.418;7.286;2022-09-09T14:29:40;99143.63;;;19.59;87.85
55540;BME280;41384;51.418;7.286;2022-09-09T14:32:06;99144.81;;;19.47;87.05
55540;BME280;41384;51.418;7.286;2022-09-09T14:34:31;99142.38;;;19.51;86.83
55540;BME280;41384;51.418;7.286;2022-09-09T14:37:00;99154.13;;;19.25;84.93
55540;BME280;41384;51.418;7.286;2022-09-09T14:39:25;99152.13;;;19.36;85.50
55540;BME280;41384;51.418;7.286;2022-09-09T14:41:51;99151.75;;;19.19;85.34
55540;BME280;41384;51.418;7.286;2022-09-09T14:44:16;99144.44;;;19.30;84.83
55540;BME280;41384;51.418;7.286;2022-09-09T14:46:42;99154.34;;;19.29;85.08
55540;BME280;41384;51.418;7.286;2022-09-09T14:49:10;99159.81;;;19.14;89.10